This is the latest recevied weather packets stored in our database for station/object I1SXT-13. If no packets are shown the sender has not sent any weather packets the latest 10 day(s).
| Time | Temp. | Humidity | Pressure | Rain* | Wind** | Luminosity | Snow |
|---|---|---|---|---|---|---|---|
| 1777877666 | 13.89° C | 70% | 1019.6 hPa | 0 mm | - | - | - |
| 1777877368 | 13.89° C | 70% | 1019.5 hPa | 0 mm | - | - | - |
| 1777877064 | 13.33° C | 71% | 1019.3 hPa | 0 mm | - | - | - |
| 1777876767 | 13.89° C | 68% | 1019.3 hPa | 0 mm | - | - | - |
| 1777876470 | 13.89° C | 66% | 1019.5 hPa | 0 mm | - | - | - |
| 1777875565 | 13.89° C | 68% | 1019 hPa | 0 mm | - | - | - |
| 1777875268 | 13.89° C | 66% | 1019.3 hPa | 0 mm | - | - | - |
| 1777874963 | 13.89° C | 68% | 1019.5 hPa | 0 mm | - | - | - |
| 1777874666 | 13.89° C | 66% | 1019.5 hPa | 0 mm | - | - | - |
| 1777874369 | 13.89° C | 65% | 1019.7 hPa | 0 mm | - | - | - |
| 1777874065 | 13.33° C | 66% | 1019.4 hPa | 0 mm | - | - | - |
| 1777873767 | 12.78° C | 69% | 1019.1 hPa | 0 mm | - | - | - |
| 1777873464 | 12.78° C | 68% | 1019.6 hPa | 0 mm | - | - | - |
| 1777873166 | 12.22° C | 72% | 1019.5 hPa | 0 mm | - | - | - |
| 1777872869 | 12.22° C | 73% | 1020.1 hPa | 0 mm | - | - | - |
| 1777872565 | 12.22° C | 73% | 1019.6 hPa | 0 mm | - | - | - |
| 1777872268 | 11.67° C | 74% | 1019.5 hPa | 0 mm | - | - | - |
| 1777871964 | 11.67° C | 74% | 1019.5 hPa | 0 mm | - | - | - |
| 1777871667 | 11.67° C | 75% | 1019.7 hPa | 0 mm | - | - | - |
| 1777871369 | 11.11° C | 78% | 1020.1 hPa | 0 mm | - | - | - |
| 1777871066 | 11.11° C | 78% | 1019 hPa | 0 mm | - | - | - |
| 1777870464 | 11.11° C | 78% | 1019.4 hPa | 0 mm | - | - | - |
| 1777870167 | 10.56° C | 78% | 1019 hPa | 0 mm | - | - | - |
| 1777869870 | 11.11° C | 78% | 1018.8 hPa | 0 mm | - | - | - |
| 1777869566 | 11.11° C | 76% | 1018.7 hPa | 0 mm | - | - | - |
* Rain since midnight (hover to see other rain measurements)
** Current wind speed in m/s (hover to see current wind gust speed)